Time;durP1;ratioP1;P1;durP2;ratioP2;P2;SDS_P1;SDS_P2;PMS_P1;PMS_P2;Temp;Humidity;BMP_temperature;BMP_pressure;BME280_temperature;BME280_humidity;BME280_pressure;Samples;Min_cycle;Max_cycle;Signal;HPM_P1;HPM_P2
2022/01/27 00:04:38;;;;;;;44.50;20.90;;;5.60;99.90;;;;;;5035659;28;20151;-83
2022/01/27 00:07:04;;;;;;;43.10;20.02;;;5.70;99.90;;;;;;5038834;28;20057;-83
2022/01/27 00:12:08;;;;;;;37.33;17.33;;;5.60;99.90;;;;;;5046614;28;20490;-83
2022/01/27 00:14:34;;;;;;;45.55;21.83;;;5.60;99.90;;;;;;5071586;28;20487;-83
2022/01/27 00:17:12;;;;;;;49.42;19.83;;;5.60;99.90;;;;;;5050456;28;20114;-84
2022/01/27 00:19:38;;;;;;;37.17;17.67;;;5.70;99.90;;;;;;5061006;28;20056;-83
2022/01/27 00:22:04;;;;;;;39.83;17.23;;;5.60;99.90;;;;;;5034959;28;20819;-83
2022/01/27 00:24:31;;;;;;;45.03;21.38;;;5.60;99.90;;;;;;5013299;28;20053;-83
2022/01/27 00:26:58;;;;;;;41.58;20.80;;;5.60;99.90;;;;;;5044522;28;20048;-82
2022/01/27 00:29:25;;;;;;;31.20;15.70;;;5.60;99.90;;;;;;5047139;28;20051;-82
2022/01/27 00:31:51;;;;;;;38.28;17.70;;;5.70;99.90;;;;;;5029553;28;20047;-83
2022/01/27 00:34:16;;;;;;;45.75;20.63;;;5.70;99.90;;;;;;5014933;28;20403;-83
2022/01/27 00:36:42;;;;;;;46.15;21.77;;;5.60;99.90;;;;;;5033099;28;20538;-83
2022/01/27 00:39:08;;;;;;;41.53;20.13;;;5.70;99.90;;;;;;5033171;28;20124;-82
2022/01/27 00:41:34;;;;;;;43.95;19.42;;;5.70;99.90;;;;;;5001782;28;20045;-82
2022/01/27 00:44:01;;;;;;;43.38;18.90;;;5.70;99.90;;;;;;5037103;28;20095;-82
2022/01/27 00:46:26;;;;;;;43.55;20.45;;;5.60;99.90;;;;;;5026586;28;20037;-83
2022/01/27 00:48:52;;;;;;;42.80;19.70;;;5.60;99.90;;;;;;5067098;28;20115;-83
2022/01/27 00:51:22;;;;;;;33.83;17.13;;;5.60;99.90;;;;;;5039502;28;20497;-83
2022/01/27 00:54:18;;;;;;;43.25;20.02;;;5.70;99.90;;;;;;5045575;28;20567;-83
2022/01/27 00:56:54;;;;;;;42.22;20.00;;;5.70;99.90;;;;;;5045016;28;20065;-83
2022/01/27 00:59:40;;;;;;;43.50;20.63;;;5.70;99.90;;;;;;5050236;28;20560;-82
2022/01/27 01:02:31;;;;;;;45.03;20.63;;;5.60;99.90;;;;;;5022405;28;20075;-83
2022/01/27 01:07:44;;;;;;;44.08;19.40;;;5.60;99.90;;;;;;5017131;28;20049;-82
2022/01/27 01:15:15;;;;;;;40.40;18.63;;;5.60;99.90;;;;;;5006041;28;20059;-82
2022/01/27 01:17:52;;;;;;;42.33;19.63;;;5.60;99.90;;;;;;4998040;28;20395;-82
2022/01/27 01:20:32;;;;;;;41.60;18.92;;;5.60;99.90;;;;;;5034912;28;20069;-82
2022/01/27 01:31:46;;;;;;;44.05;20.90;;;5.50;99.90;;;;;;5018310;28;20128;-82
2022/01/27 01:34:22;;;;;;;40.65;20.33;;;5.60;99.90;;;;;;5013356;28;20144;-82
2022/01/27 01:36:53;;;;;;;;;;;5.50;99.90;;;;;;5025204;28;20041;-82
2022/01/27 01:39:20;;;;;;;39.20;18.08;;;5.50;99.90;;;;;;5034563;28;19936;-82
2022/01/27 01:41:46;;;;;;;41.00;19.45;;;5.50;99.90;;;;;;5028060;28;20483;-82
2022/01/27 01:44:11;;;;;;;43.08;20.48;;;5.50;99.90;;;;;;5032480;28;20095;-82
2022/01/27 01:46:37;;;;;;;42.55;20.63;;;5.50;99.90;;;;;;5018222;28;20080;-82
2022/01/27 01:49:04;;;;;;;43.20;21.13;;;5.50;99.90;;;;;;5000851;28;20603;-81
2022/01/27 01:51:33;;;;;;;44.83;20.40;;;5.50;99.90;;;;;;5041630;28;20120;-82
2022/01/27 01:53:59;;;;;;;42.63;18.33;;;5.40;99.90;;;;;;5017891;28;20060;-82
2022/01/27 01:56:25;;;;;;;40.30;18.75;;;5.50;99.90;;;;;;4990262;28;20107;-82
2022/01/27 01:58:51;;;;;;;45.08;19.60;;;5.40;99.90;;;;;;5015285;28;20045;-81
2022/01/27 02:01:18;;;;;;;42.17;18.40;;;5.30;99.90;;;;;;5050112;28;20053;-82
2022/01/27 02:03:45;;;;;;;29.38;14.30;;;5.30;99.90;;;;;;5046216;28;20125;-82
2022/01/27 02:06:18;;;;;;;36.90;17.85;;;5.20;99.90;;;;;;5052662;28;20041;-82
2022/01/27 02:09:07;;;;;;;37.47;18.48;;;5.30;99.90;;;;;;5040847;28;20132;-82
2022/01/27 02:19:56;;;;;;;37.97;19.15;;;5.40;99.90;;;;;;5046621;28;20138;-80
2022/01/27 02:22:22;;;;;;;37.00;18.73;;;5.40;99.90;;;;;;5035263;28;20076;-81
2022/01/27 02:24:50;;;;;;;39.85;18.20;;;5.40;99.90;;;;;;5033527;28;20155;-80
2022/01/27 02:27:18;;;;;;;43.15;20.02;;;5.40;99.90;;;;;;5040825;28;20482;-81
2022/01/27 02:29:45;;;;;;;40.53;19.13;;;5.50;99.90;;;;;;5046823;28;20099;-82
2022/01/27 02:32:12;;;;;;;39.38;19.33;;;5.50;99.90;;;;;;5044861;28;20053;-82
2022/01/27 02:34:40;;;;;;;37.33;18.52;;;5.50;99.90;;;;;;5061797;28;20678;-81
2022/01/27 02:37:07;;;;;;;48.65;20.27;;;5.50;99.90;;;;;;5054071;28;20141;-81
2022/01/27 02:39:33;;;;;;;36.85;16.00;;;5.60;99.90;;;;;;5023857;28;20052;-82
2022/01/27 02:42:24;;;;;;;44.70;18.33;;;5.60;99.90;;;;;;5035049;28;20045;-82
2022/01/27 02:45:17;;;;;;;47.75;20.60;;;5.60;99.90;;;;;;5032132;28;20049;-81
2022/01/27 02:47:43;;;;;;;45.00;19.83;;;5.60;99.90;;;;;;5065133;28;20072;-81
2022/01/27 02:50:09;;;;;;;40.35;19.98;;;5.60;99.90;;;;;;5035480;28;20714;-82
2022/01/27 02:52:34;;;;;;;43.17;18.45;;;5.50;99.90;;;;;;5065136;28;20478;-82
2022/01/27 02:55:00;;;;;;;31.48;15.95;;;5.60;99.90;;;;;;5032597;28;20136;-82
2022/01/27 02:57:26;;;;;;;41.83;19.27;;;5.60;99.90;;;;;;5035059;28;20041;-81
2022/01/27 02:59:52;;;;;;;45.97;20.98;;;5.60;99.90;;;;;;5048999;28;20049;-81
2022/01/27 03:02:19;;;;;;;38.72;20.48;;;5.60;99.90;;;;;;5060599;28;20055;-82
2022/01/27 03:04:45;;;;;;;37.17;19.50;;;5.60;99.90;;;;;;5032987;28;20053;-82
2022/01/27 03:07:11;;;;;;;41.35;19.42;;;5.60;99.90;;;;;;5030092;28;20090;-81
2022/01/27 03:09:38;;;;;;;36.60;18.75;;;5.60;99.90;;;;;;5031656;28;20045;-82
2022/01/27 03:12:11;;;;;;;38.92;19.70;;;5.60;99.90;;;;;;5033944;28;20069;-81
2022/01/27 03:14:38;;;;;;;39.78;18.92;;;5.50;99.90;;;;;;5034830;28;20037;-81
2022/01/27 03:17:05;;;;;;;41.72;20.92;;;5.50;99.90;;;;;;5024407;28;20049;-82
2022/01/27 03:19:31;;;;;;;43.13;20.30;;;5.50;99.90;;;;;;5034365;28;20052;-81
2022/01/27 03:21:58;;;;;;;46.83;19.40;;;5.50;99.90;;;;;;5031620;28;20503;-80
2022/01/27 03:24:24;;;;;;;43.35;19.17;;;5.50;99.90;;;;;;5023090;28;20103;-81
2022/01/27 03:26:51;;;;;;;43.60;21.08;;;5.50;99.90;;;;;;5027994;28;20045;-81
2022/01/27 03:29:18;;;;;;;39.92;18.00;;;5.50;99.90;;;;;;5049473;28;20099;-81
2022/01/27 03:31:45;;;;;;;43.63;23.08;;;5.40;99.90;;;;;;5051092;28;20040;-81
2022/01/27 03:34:11;;;;;;;44.20;19.08;;;5.40;99.90;;;;;;5046935;28;20045;-81
2022/01/27 03:36:36;;;;;;;52.10;22.15;;;5.40;99.90;;;;;;5033240;28;20044;-81
2022/01/27 03:39:03;;;;;;;29.17;13.80;;;5.40;99.90;;;;;;5045136;28;20084;-81
2022/01/27 03:41:32;;;;;;;48.35;20.92;;;5.50;99.90;;;;;;5033514;28;20075;-82
2022/01/27 03:43:58;;;;;;;46.20;23.00;;;5.40;99.90;;;;;;5026938;28;20053;-80
2022/01/27 03:46:24;;;;;;;35.67;17.27;;;5.50;99.90;;;;;;5031447;28;20128;-81
2022/01/27 03:48:50;;;;;;;51.70;23.17;;;5.40;99.90;;;;;;5023436;28;20037;-81
2022/01/27 03:51:16;;;;;;;49.90;22.42;;;5.40;99.90;;;;;;5030242;28;20064;-81
2022/01/27 03:53:42;;;;;;;46.22;22.23;;;5.50;99.90;;;;;;5040016;28;20045;-81
2022/01/27 03:56:08;;;;;;;41.50;22.27;;;5.50;99.90;;;;;;5048322;28;20056;-81
2022/01/27 03:58:34;;;;;;;41.65;18.67;;;5.50;99.90;;;;;;5064513;28;20045;-81
2022/01/27 04:01:02;;;;;;;36.67;18.25;;;5.50;99.90;;;;;;5030021;28;20139;-80
2022/01/27 04:03:31;;;;;;;45.35;21.13;;;5.50;99.90;;;;;;5027091;28;20506;-80
2022/01/27 04:06:04;;;;;;;41.40;20.42;;;5.50;99.90;;;;;;5043692;28;20041;-81
2022/01/27 04:08:29;;;;;;;43.50;21.00;;;5.50;99.90;;;;;;5047428;28;20465;-81
2022/01/27 04:10:55;;;;;;;44.70;20.48;;;5.60;99.90;;;;;;5029892;28;20045;-81
2022/01/27 04:13:21;;;;;;;45.58;20.63;;;5.50;99.90;;;;;;5063394;28;20238;-81
2022/01/27 04:15:46;;;;;;;48.40;22.30;;;5.50;99.90;;;;;;5001322;28;20098;-81
2022/01/27 04:18:13;;;;;;;48.47;21.08;;;5.60;99.90;;;;;;5043482;28;20129;-82
2022/01/27 04:20:40;;;;;;;36.42;18.38;;;5.60;99.90;;;;;;5036378;28;20056;-82
2022/01/27 04:23:07;;;;;;;40.20;20.30;;;5.60;99.90;;;;;;5013111;28;20072;-81
2022/01/27 04:25:33;;;;;;;37.08;17.60;;;5.60;99.90;;;;;;5009431;28;20060;-81
2022/01/27 04:28:04;;;;;;;46.40;21.42;;;5.60;99.90;;;;;;5032019;28;20482;-81
2022/01/27 04:30:31;;;;;;;42.95;21.40;;;5.70;99.90;;;;;;5014520;28;20079;-82
2022/01/27 04:32:59;;;;;;;38.65;17.52;;;5.60;99.90;;;;;;5050021;28;20049;-82
2022/01/27 04:35:27;;;;;;;45.30;22.23;;;5.70;99.90;;;;;;5029597;28;20042;-82
2022/01/27 04:40:25;;;;;;;47.83;20.77;;;5.60;99.90;;;;;;5037197;28;20049;-82
2022/01/27 04:43:09;;;;;;;43.92;21.55;;;5.70;99.90;;;;;;5046522;28;20486;-83
2022/01/27 04:45:55;;;;;;;36.45;17.77;;;5.70;99.90;;;;;;5039910;28;20046;-82
2022/01/27 04:48:22;;;;;;;44.30;18.98;;;5.70;99.90;;;;;;5012732;28;20037;-82
2022/01/27 04:50:50;;;;;;;47.90;21.85;;;5.70;99.90;;;;;;5056369;28;20402;-82
2022/01/27 04:53:23;;;;;;;45.60;21.38;;;5.60;99.90;;;;;;5048376;28;20045;-82
2022/01/27 04:55:49;;;;;;;46.42;22.73;;;5.70;99.90;;;;;;5033428;28;20053;-82
2022/01/27 04:58:19;;;;;;;42.10;19.65;;;5.70;99.90;;;;;;5032937;28;20395;-83
2022/01/27 05:00:45;;;;;;;42.15;21.15;;;5.70;99.90;;;;;;5029352;28;20127;-82
2022/01/27 05:03:23;;;;;;;43.60;21.40;;;5.70;99.90;;;;;;5032273;28;20188;-82
2022/01/27 05:05:52;;;;;;;44.58;19.65;;;5.70;99.90;;;;;;5048598;28;20175;-82
2022/01/27 05:08:19;;;;;;;45.88;20.20;;;5.60;99.90;;;;;;5029062;28;20053;-82
2022/01/27 05:10:55;;;;;;;48.97;22.38;;;5.50;99.90;;;;;;5048439;28;20053;-82
2022/01/27 05:13:24;;;;;;;39.80;18.85;;;5.50;99.90;;;;;;5047372;28;20044;-83
2022/01/27 05:15:49;;;;;;;44.15;20.77;;;5.40;99.90;;;;;;5032609;28;20057;-81
2022/01/27 05:18:15;;;;;;;47.85;21.02;;;5.40;99.90;;;;;;5028819;28;20049;-82
2022/01/27 05:20:42;;;;;;;45.70;20.55;;;5.40;99.90;;;;;;5032758;28;20053;-81
2022/01/27 05:23:07;;;;;;;44.10;19.42;;;5.50;99.90;;;;;;5039524;28;20053;-81
2022/01/27 05:25:33;;;;;;;45.72;21.75;;;5.50;99.90;;;;;;5043769;28;20102;-82
2022/01/27 05:28:00;;;;;;;50.92;20.05;;;5.50;99.90;;;;;;5034605;28;20060;-81
2022/01/27 05:30:25;;;;;;;44.00;20.30;;;5.60;99.90;;;;;;5028192;28;20514;-81
2022/01/27 05:32:51;;;;;;;41.55;19.58;;;5.60;99.90;;;;;;5030743;28;20123;-81
2022/01/27 05:35:17;;;;;;;38.83;18.33;;;5.70;99.90;;;;;;5008952;28;20049;-81
2022/01/27 05:37:43;;;;;;;40.75;18.05;;;5.80;99.90;;;;;;5046373;28;20115;-81
2022/01/27 05:40:09;;;;;;;47.92;18.95;;;5.70;99.90;;;;;;5047123;28;20053;-81
2022/01/27 05:42:35;;;;;;;49.13;18.88;;;5.70;99.90;;;;;;5017790;28;20146;-82
2022/01/27 05:45:00;;;;;;;47.67;20.63;;;5.70;99.90;;;;;;5039674;28;20113;-82
2022/01/27 05:47:26;;;;;;;45.85;18.88;;;5.60;99.90;;;;;;5032727;28;20100;-82
2022/01/27 05:49:52;;;;;;;47.22;18.65;;;5.50;99.90;;;;;;5025336;28;20053;-83
2022/01/27 05:52:17;;;;;;;45.78;19.77;;;5.50;99.90;;;;;;5063178;28;20049;-84
2022/01/27 05:54:45;;;;;;;49.88;20.58;;;5.50;99.90;;;;;;5038429;28;20041;-86
2022/01/27 05:57:10;;;;;;;56.03;21.15;;;5.50;99.90;;;;;;5009677;28;20125;-86
2022/01/27 05:59:36;;;;;;;50.55;22.52;;;5.50;99.90;;;;;;5059484;28;20053;-86
2022/01/27 06:02:02;;;;;;;55.10;21.15;;;5.40;99.90;;;;;;5046572;28;20060;-88
2022/01/27 06:04:27;;;;;;;44.38;18.45;;;5.40;99.90;;;;;;5034315;28;20060;-87
2022/01/27 06:06:53;;;;;;;54.55;19.85;;;5.50;99.90;;;;;;5006345;28;20045;-86
2022/01/27 06:09:19;;;;;;;41.17;15.00;;;5.50;99.90;;;;;;5014015;28;20147;-88
2022/01/27 06:11:45;;;;;;;44.58;17.10;;;5.50;99.90;;;;;;5045694;28;20037;-87
2022/01/27 06:14:10;;;;;;;61.78;23.10;;;5.50;99.90;;;;;;5028288;28;20111;-91
2022/01/27 06:16:36;;;;;;;54.45;19.75;;;5.60;99.90;;;;;;5040829;28;20040;-88
2022/01/27 06:19:04;;;;;;;49.17;18.20;;;5.60;99.90;;;;;;5049310;28;20518;-87
2022/01/27 06:21:31;;;;;;;48.28;17.23;;;5.60;99.90;;;;;;5028598;28;20071;-86
2022/01/27 06:23:56;;;;;;;49.50;17.92;;;5.70;99.90;;;;;;5041917;28;20045;-89
2022/01/27 06:26:22;;;;;;;37.40;17.35;;;5.60;99.90;;;;;;5038669;28;20465;-85
2022/01/27 06:28:48;;;;;;;49.63;19.85;;;5.60;99.90;;;;;;5035371;28;20049;-86
2022/01/27 06:31:14;;;;;;;50.70;19.92;;;5.60;99.90;;;;;;5029487;28;20622;-88
2022/01/27 06:33:40;;;;;;;38.88;15.45;;;5.70;99.90;;;;;;5033408;28;20042;-82
2022/01/27 06:36:05;;;;;;;42.40;16.67;;;5.70;99.90;;;;;;5045312;28;20040;-84
2022/01/27 06:38:31;;;;;;;57.10;20.75;;;5.70;99.90;;;;;;5062899;28;20486;-86
2022/01/27 06:40:57;;;;;;;43.15;18.50;;;5.70;99.90;;;;;;5047149;28;20052;-84
2022/01/27 06:43:23;;;;;;;50.72;18.05;;;5.70;99.90;;;;;;5046368;28;20049;-84
2022/01/27 06:45:48;;;;;;;39.00;15.40;;;5.70;99.90;;;;;;5047635;28;20514;-84
2022/01/27 06:48:14;;;;;;;47.35;18.30;;;5.70;99.90;;;;;;5045825;28;20641;-85
2022/01/27 06:50:40;;;;;;;44.65;16.83;;;5.80;99.90;;;;;;5025422;28;20051;-82
2022/01/27 06:53:06;;;;;;;44.95;18.02;;;5.80;99.90;;;;;;5015223;28;20053;-87
2022/01/27 06:55:32;;;;;;;43.75;17.65;;;5.80;99.90;;;;;;5055100;28;20036;-88
2022/01/27 06:57:57;;;;;;;44.50;17.30;;;5.80;99.90;;;;;;5050842;28;20048;-87
2022/01/27 07:00:23;;;;;;;29.52;12.73;;;5.80;99.90;;;;;;5048036;28;20143;-84
2022/01/27 07:02:49;;;;;;;30.58;12.68;;;5.90;99.90;;;;;;5031818;28;20089;-88
2022/01/27 07:05:17;;;;;;;41.03;13.35;;;5.90;99.90;;;;;;5049995;28;20044;-87
2022/01/27 07:07:43;;;;;;;34.65;13.60;;;5.90;99.90;;;;;;5035381;28;20243;-87
2022/01/27 07:10:10;;;;;;;33.92;14.98;;;6.00;99.90;;;;;;5069141;28;20053;-87
2022/01/27 07:12:42;;;;;;;32.67;13.48;;;6.00;99.90;;;;;;5051210;28;20045;-87
2022/01/27 07:15:08;;;;;;;31.30;13.50;;;6.00;99.90;;;;;;5051973;28;20479;-87
2022/01/27 07:17:34;;;;;;;25.95;10.40;;;6.10;99.90;;;;;;5068438;28;20055;-89
2022/01/27 07:19:59;;;;;;;37.22;15.55;;;6.10;99.90;;;;;;5003374;28;20109;-89
2022/01/27 07:22:25;;;;;;;35.85;13.43;;;6.10;99.90;;;;;;5052141;28;20102;-84
2022/01/27 07:24:51;;;;;;;34.38;13.40;;;6.10;99.90;;;;;;5035274;28;20048;-88
2022/01/27 07:27:17;;;;;;;31.70;12.82;;;6.10;99.90;;;;;;5052767;28;20044;-88
2022/01/27 07:29:44;;;;;;;28.60;12.30;;;6.20;99.90;;;;;;5016348;28;20508;-88
2022/01/27 07:32:34;;;;;;;34.65;12.77;;;6.20;99.90;;;;;;5032874;28;20104;-85
2022/01/27 07:35:21;;;;;;;27.02;12.20;;;6.20;99.90;;;;;;5043654;28;20084;-84
2022/01/27 07:37:54;;;;;;;28.02;12.93;;;6.20;99.90;;;;;;5048553;28;20100;-85
2022/01/27 07:40:23;;;;;;;28.27;12.80;;;6.20;99.90;;;;;;5057057;28;20093;-85
2022/01/27 07:42:49;;;;;;;28.30;12.20;;;6.20;99.90;;;;;;5048338;28;20053;-86
2022/01/27 07:45:20;;;;;;;32.28;12.98;;;6.30;99.90;;;;;;5030523;28;20053;-87
2022/01/27 07:47:48;;;;;;;27.58;11.15;;;6.20;99.90;;;;;;5043893;28;20037;-86
2022/01/27 07:50:32;;;;;;;28.98;12.10;;;6.30;99.90;;;;;;5067023;28;20394;-85
2022/01/27 07:53:07;;;;;;;17.60;9.88;;;6.30;99.90;;;;;;5034989;28;20059;-85
2022/01/27 07:55:33;;;;;;;16.67;8.95;;;6.30;99.90;;;;;;5048876;28;20041;-85
2022/01/27 07:58:01;;;;;;;28.70;11.00;;;6.40;99.90;;;;;;5032245;28;20160;-85
2022/01/27 08:00:34;;;;;;;19.55;9.48;;;6.40;99.90;;;;;;5026579;28;20040;-85
2022/01/27 08:03:05;;;;;;;28.40;11.82;;;6.40;99.90;;;;;;5035797;28;20060;-86
2022/01/27 08:05:45;;;;;;;26.58;11.52;;;6.50;99.90;;;;;;5058193;28;20194;-85
2022/01/27 08:08:14;;;;;;;27.15;11.38;;;6.50;99.90;;;;;;5042081;28;20044;-86
2022/01/27 08:11:04;;;;;;;25.60;11.65;;;6.50;99.90;;;;;;5058660;28;20049;-85
2022/01/27 08:13:37;;;;;;;29.83;12.00;;;6.50;99.90;;;;;;5049323;28;20088;-87
2022/01/27 08:16:26;;;;;;;30.58;11.77;;;6.60;99.90;;;;;;5046245;28;20637;-86
2022/01/27 08:18:54;;;;;;;28.92;11.05;;;6.60;99.90;;;;;;5032277;28;20803;-85
2022/01/27 08:21:20;;;;;;;40.90;13.88;;;6.60;99.90;;;;;;5042989;28;20049;-85
2022/01/27 08:23:46;;;;;;;35.83;12.57;;;6.70;99.90;;;;;;5043662;28;20050;-85
2022/01/27 08:26:30;;;;;;;43.60;14.88;;;6.70;99.90;;;;;;5060359;28;20501;-84
2022/01/27 08:29:08;;;;;;;39.88;14.88;;;6.70;99.90;;;;;;5036886;28;20055;-85
2022/01/27 08:32:01;;;;;;;42.20;14.45;;;6.70;99.90;;;;;;5043661;28;20068;-85
2022/01/27 08:34:37;;;;;;;40.97;13.43;;;6.80;99.90;;;;;;5033471;28;20045;-86
2022/01/27 08:37:32;;;;;;;46.47;15.02;;;6.80;99.90;;;;;;5031125;28;20050;-85
2022/01/27 08:39:58;;;;;;;44.88;14.18;;;6.90;99.90;;;;;;5056804;28;20107;-86
2022/01/27 08:42:57;;;;;;;43.72;13.80;;;6.90;99.90;;;;;;5045434;28;20041;-86
2022/01/27 08:45:33;;;;;;;47.03;15.60;;;7.00;99.90;;;;;;5060159;28;20525;-86
2022/01/27 08:48:26;;;;;;;31.05;10.98;;;7.00;99.90;;;;;;5038630;28;20052;-85
2022/01/27 08:50:58;;;;;;;33.75;13.50;;;7.10;99.90;;;;;;5029969;28;20391;-81
2022/01/27 08:53:38;;;;;;;;;;;;;;;;;;;;;
2022/01/27 08:56:16;;;;;;;39.35;11.52;;;7.10;99.90;;;;;;5068719;28;20532;-85
2022/01/27 08:58:45;;;;;;;40.92;13.05;;;7.20;99.90;;;;;;5040979;28;20107;-85
2022/01/27 09:01:34;;;;;;;44.30;13.88;;;7.20;99.90;;;;;;5048851;28;20080;-85
2022/01/27 09:04:39;;;;;;;;;;;;;;;;;;;;;
2022/01/27 09:07:20;;;;;;;33.80;12.30;;;7.20;99.90;;;;;;5050092;28;20045;-85
2022/01/27 09:09:53;;;;;;;31.63;12.13;;;7.20;99.90;;;;;;5031832;28;20466;-85
2022/01/27 09:12:30;;;;;;;34.65;11.63;;;7.20;99.90;;;;;;5047348;28;20052;-85
2022/01/27 09:15:03;;;;;;;31.35;9.80;;;7.30;99.90;;;;;;5012274;28;20053;-85
2022/01/27 09:17:38;;;;;;;33.70;9.45;;;7.30;99.90;;;;;;5014182;28;20056;-85
2022/01/27 09:20:07;;;;;;;35.88;11.02;;;7.30;99.90;;;;;;5046509;28;20122;-85
2022/01/27 09:22:42;;;;;;;35.97;10.52;;;7.30;99.90;;;;;;5044007;28;20509;-85
2022/01/27 09:25:22;;;;;;;28.23;10.73;;;7.40;99.90;;;;;;5047830;28;20076;-85
2022/01/27 09:27:52;;;;;;;31.38;11.10;;;7.40;99.90;;;;;;5045185;28;20542;-85
2022/01/27 09:30:28;;;;;;;36.00;11.32;;;7.40;99.90;;;;;;5027514;28;20053;-84
2022/01/27 09:33:06;;;;;;;;;;;;;;;;;;;;;
2022/01/27 09:35:43;;;;;;;36.63;9.38;;;7.50;99.90;;;;;;5034201;28;20110;-87
2022/01/27 09:38:16;;;;;;;29.52;8.50;;;7.60;99.90;;;;;;5053774;28;20079;-86
2022/01/27 09:40:46;;;;;;;29.23;8.20;;;7.60;99.90;;;;;;5015146;28;20045;-87
2022/01/27 09:43:26;;;;;;;24.60;7.18;;;7.70;99.90;;;;;;5062400;28;20099;-87
2022/01/27 09:45:56;;;;;;;29.58;8.90;;;7.80;99.90;;;;;;5062208;28;20551;-86
2022/01/27 09:48:37;;;;;;;29.48;9.48;;;7.80;99.90;;;;;;5051663;28;20048;-87
2022/01/27 09:54:07;;;;;;;20.83;7.20;;;7.80;99.90;;;;;;5047692;28;20052;-85
2022/01/27 09:56:53;;;;;;;;;;;;;;;;;;;;;
2022/01/27 09:59:25;;;;;;;20.25;5.60;;;7.90;99.90;;;;;;5049036;28;20047;-85
2022/01/27 10:02:12;;;;;;;25.15;7.63;;;7.90;99.90;;;;;;5032831;28;20406;-86
2022/01/27 10:05:02;;;;;;;28.52;8.48;;;7.90;99.90;;;;;;5017006;28;20056;-87
2022/01/27 10:07:40;;;;;;;28.52;6.93;;;8.00;99.90;;;;;;5026624;28;20045;-87
2022/01/27 10:10:07;;;;;;;23.05;7.32;;;7.90;99.90;;;;;;5024700;28;20108;-86
2022/01/27 10:12:46;;;;;;;21.25;5.63;;;8.00;99.90;;;;;;5015981;28;20060;-86
2022/01/27 10:15:18;;;;;;;24.10;6.30;;;8.00;99.90;;;;;;5027295;28;20057;-86
2022/01/27 10:18:14;;;;;;;16.85;5.55;;;8.00;99.90;;;;;;5018992;28;20041;-85
2022/01/27 10:21:00;;;;;;;19.73;6.38;;;8.10;99.90;;;;;;4998566;28;20050;-85
2022/01/27 10:23:32;;;;;;;24.70;6.25;;;8.20;99.90;;;;;;5008938;28;20095;-77
2022/01/27 10:26:12;;;;;;;22.70;6.22;;;8.20;99.90;;;;;;5007692;28;20053;-86
2022/01/27 10:28:50;;;;;;;24.17;7.93;;;8.20;99.90;;;;;;5027135;28;20534;-86
2022/01/27 10:31:24;;;;;;;26.20;6.25;;;8.20;99.90;;;;;;5027806;28;20045;-86
2022/01/27 10:34:04;;;;;;;20.38;5.43;;;8.30;99.90;;;;;;5012009;28;20778;-86
2022/01/27 10:36:36;;;;;;;27.05;5.95;;;8.20;99.90;;;;;;5021662;28;20085;-86
2022/01/27 10:39:21;;;;;;;25.40;5.80;;;8.20;99.90;;;;;;4990476;28;20056;-86
2022/01/27 10:42:05;;;;;;;21.55;7.47;;;8.20;99.90;;;;;;4995126;28;20403;-86
2022/01/27 10:44:55;;;;;;;;;;;;;;;;;;;;;
2022/01/27 10:47:28;;;;;;;21.77;6.00;;;8.30;99.90;;;;;;4985006;28;20053;-85
2022/01/27 10:50:01;;;;;;;18.15;5.22;;;8.30;99.90;;;;;;4996522;28;20148;-85
2022/01/27 10:55:24;;;;;;;25.98;6.03;;;8.40;99.90;;;;;;5004394;28;20089;-86
2022/01/27 10:57:50;;;;;;;22.00;5.05;;;8.40;99.90;;;;;;5008386;28;20053;-85
2022/01/27 11:00:19;;;;;;;23.67;5.38;;;8.40;99.90;;;;;;5004798;28;20052;-85
2022/01/27 11:02:56;;;;;;;17.20;4.68;;;8.40;99.90;;;;;;5007270;28;20502;-85
2022/01/27 11:05:24;;;;;;;17.55;4.07;;;8.50;99.90;;;;;;5039700;28;20452;-84
2022/01/27 11:07:50;;;;;;;20.65;6.10;;;8.50;99.90;;;;;;5068552;28;20107;-85
2022/01/27 11:10:16;;;;;;;25.35;5.22;;;8.50;99.90;;;;;;5048912;28;20041;-84
2022/01/27 11:12:44;;;;;;;19.23;4.68;;;8.40;99.90;;;;;;5005637;28;20068;-84
2022/01/27 11:15:16;;;;;;;15.52;4.40;;;8.50;99.90;;;;;;5036972;28;20542;-84
2022/01/27 11:17:44;;;;;;;20.52;4.88;;;8.50;99.90;;;;;;5056730;28;20462;-84
2022/01/27 11:27:51;;;;;;;17.52;5.07;;;8.50;99.90;;;;;;5056068;28;20164;-84
2022/01/27 11:30:31;;;;;;;17.77;4.47;;;8.50;99.90;;;;;;5037214;28;20138;-85
2022/01/27 11:33:09;;;;;;;24.63;4.28;;;8.50;99.90;;;;;;5050179;28;20076;-85
2022/01/27 11:35:36;;;;;;;23.67;5.40;;;8.50;99.90;;;;;;5052294;28;20068;-85
2022/01/27 11:38:04;;;;;;;26.60;5.88;;;8.50;99.90;;;;;;5055689;28;20118;-85
2022/01/27 11:40:44;;;;;;;25.77;4.80;;;8.50;99.90;;;;;;5053859;28;20048;-85
2022/01/27 11:43:13;;;;;;;11.93;3.85;;;8.60;99.90;;;;;;5051416;28;20048;-82
2022/01/27 11:45:47;;;;;;;26.58;4.57;;;8.60;99.90;;;;;;5052210;28;20067;-83
2022/01/27 11:48:22;;;;;;;36.53;4.43;;;8.60;99.90;;;;;;5050386;28;20045;-83
2022/01/27 11:51:09;;;;;;;23.57;4.37;;;8.60;99.90;;;;;;5045911;28;20127;-83
2022/01/27 11:53:45;;;;;;;20.38;4.45;;;8.70;99.90;;;;;;5067797;28;20053;-85
2022/01/27 11:56:23;;;;;;;17.75;4.43;;;8.60;99.90;;;;;;5053791;28;20052;-84
2022/01/27 11:59:09;;;;;;;19.00;4.30;;;8.70;99.90;;;;;;5038740;28;20052;-83
2022/01/27 12:01:37;;;;;;;15.15;3.83;;;8.70;99.90;;;;;;5061997;28;20052;-79
2022/01/27 12:04:04;;;;;;;21.30;5.43;;;8.80;99.90;;;;;;5052402;28;20053;-85
2022/01/27 12:06:34;;;;;;;18.80;4.28;;;8.80;99.90;;;;;;5045654;28;20053;-85
2022/01/27 12:09:32;;;;;;;23.15;4.95;;;8.90;99.90;;;;;;5074819;28;20098;-81
2022/01/27 12:12:26;;;;;;;18.05;3.63;;;8.90;99.90;;;;;;5072824;28;20073;-85
2022/01/27 12:15:01;;;;;;;20.35;3.88;;;8.90;99.90;;;;;;5050749;28;20049;-83
2022/01/27 12:17:28;;;;;;;19.20;3.47;;;9.00;99.90;;;;;;5063403;28;20045;-85
2022/01/27 12:20:12;;;;;;;24.42;4.78;;;8.90;99.90;;;;;;5051185;28;20057;-86
2022/01/27 12:22:47;;;;;;;27.08;6.22;;;9.00;99.90;;;;;;5052304;28;20399;-85
2022/01/27 12:25:14;;;;;;;22.48;4.40;;;8.90;99.90;;;;;;5032566;28;20041;-84
2022/01/27 12:27:44;;;;;;;18.48;3.97;;;9.00;99.90;;;;;;5048350;28;20548;-84
2022/01/27 12:30:10;;;;;;;20.80;3.83;;;9.00;99.90;;;;;;5052481;28;20569;-84
2022/01/27 12:32:35;;;;;;;22.23;4.22;;;9.00;99.90;;;;;;5055889;28;20124;-84
2022/01/27 12:35:08;;;;;;;25.05;4.50;;;8.90;99.90;;;;;;5032101;28;20136;-84
2022/01/27 12:37:37;;;;;;;20.20;3.95;;;8.90;99.90;;;;;;5028602;28;20089;-84
2022/01/27 12:40:07;;;;;;;19.17;3.17;;;8.90;99.90;;;;;;5028482;28;20070;-85
2022/01/27 12:42:36;;;;;;;17.75;3.35;;;8.90;99.90;;;;;;5030213;28;20099;-84
2022/01/27 12:45:09;;;;;;;19.67;3.35;;;9.00;99.90;;;;;;5056817;28;20045;-85
2022/01/27 12:47:41;;;;;;;18.40;3.53;;;8.90;99.90;;;;;;5025168;28;20124;-84
2022/01/27 12:50:13;;;;;;;15.32;3.35;;;8.80;99.90;;;;;;5082590;28;20049;-84
2022/01/27 12:52:42;;;;;;;21.88;3.20;;;8.70;99.90;;;;;;5074702;28;20098;-84
2022/01/27 12:55:20;;;;;;;17.45;3.92;;;8.70;99.90;;;;;;5051325;28;20432;-84
2022/01/27 12:57:56;;;;;;;27.70;3.60;;;8.60;99.90;;;;;;5048469;28;20405;-84
2022/01/27 13:00:23;;;;;;;23.63;4.55;;;8.60;99.90;;;;;;5069030;28;20196;-84
2022/01/27 13:02:49;;;;;;;19.20;3.17;;;8.70;99.90;;;;;;5065823;28;20053;-83
2022/01/27 13:05:15;;;;;;;24.77;4.15;;;8.70;99.90;;;;;;5015540;28;20063;-84
2022/01/27 13:07:46;;;;;;;20.65;3.30;;;8.70;99.90;;;;;;5057954;28;20036;-84
2022/01/27 13:10:16;;;;;;;21.10;3.38;;;8.80;99.90;;;;;;5033180;28;20091;-84
2022/01/27 13:12:50;;;;;;;19.10;3.65;;;8.80;99.90;;;;;;5048576;28;20048;-84
2022/01/27 13:15:20;;;;;;;25.40;3.50;;;8.90;99.90;;;;;;5063189;28;20042;-84
2022/01/27 13:17:51;;;;;;;21.27;3.95;;;8.90;99.90;;;;;;5055143;28;20128;-84
2022/01/27 13:20:24;;;;;;;18.08;3.10;;;8.90;99.90;;;;;;5035473;28;20083;-83
2022/01/27 13:22:57;;;;;;;16.80;2.97;;;9.00;99.90;;;;;;5051088;28;20573;-85
2022/01/27 13:25:24;;;;;;;19.63;3.10;;;9.00;99.90;;;;;;5059830;28;20229;-84
2022/01/27 13:28:09;;;;;;;25.30;4.10;;;9.00;99.90;;;;;;5042721;28;20057;-84
2022/01/27 13:30:35;;;;;;;19.00;3.63;;;9.00;99.90;;;;;;5047848;28;20053;-83
2022/01/27 13:33:05;;;;;;;20.70;4.13;;;9.00;99.90;;;;;;5046798;28;20049;-84
2022/01/27 13:35:32;;;;;;;15.63;3.70;;;9.00;99.90;;;;;;5037250;28;20048;-84
2022/01/27 13:38:18;;;;;;;27.55;5.13;;;9.00;99.90;;;;;;5033924;28;20048;-85
2022/01/27 13:43:40;;;;;;;19.67;3.75;;;9.10;99.90;;;;;;5042699;28;20045;-85
2022/01/27 13:46:07;;;;;;;23.98;3.92;;;9.10;99.90;;;;;;5048982;28;20085;-86
2022/01/27 13:48:42;;;;;;;16.17;3.22;;;9.10;99.90;;;;;;4997383;28;20517;-84
2022/01/27 13:51:17;;;;;;;20.27;3.40;;;9.10;99.90;;;;;;5074652;28;20041;-86
2022/01/27 13:54:04;;;;;;;22.35;3.53;;;9.10;99.90;;;;;;5046938;28;20132;-84
2022/01/27 13:56:45;;;;;;;14.63;2.53;;;9.00;99.90;;;;;;5026643;28;20148;-83